sensor_id;sensor_type;location;lat;lon;timestamp;P1;durP1;ratioP1;P2;durP2;ratioP2
54613;SDS011;40514;52.758;6.360;2022-12-29T00:02:17;9.17;;;6.23;;
54613;SDS011;40514;52.758;6.360;2022-12-29T00:04:42;8.30;;;6.40;;
54613;SDS011;40514;52.758;6.360;2022-12-29T00:07:08;9.33;;;6.43;;
54613;SDS011;40514;52.758;6.360;2022-12-29T00:09:34;7.60;;;6.20;;
54613;SDS011;40514;52.758;6.360;2022-12-29T00:12:00;7.30;;;5.75;;
54613;SDS011;40514;52.758;6.360;2022-12-29T00:14:27;9.60;;;6.10;;
54613;SDS011;40514;52.758;6.360;2022-12-29T00:17:12;8.18;;;6.15;;
54613;SDS011;40514;52.758;6.360;2022-12-29T00:19:38;7.22;;;5.75;;
54613;SDS011;40514;52.758;6.360;2022-12-29T00:22:22;7.63;;;6.30;;
54613;SDS011;40514;52.758;6.360;2022-12-29T00:25:10;9.73;;;6.30;;
54613;SDS011;40514;52.758;6.360;2022-12-29T00:27:56;7.72;;;5.95;;
54613;SDS011;40514;52.758;6.360;2022-12-29T00:30:40;8.85;;;6.13;;
54613;SDS011;40514;52.758;6.360;2022-12-29T00:33:31;7.95;;;5.88;;
54613;SDS011;40514;52.758;6.360;2022-12-29T00:36:23;8.73;;;5.72;;
54613;SDS011;40514;52.758;6.360;2022-12-29T00:39:01;9.13;;;6.05;;
54613;SDS011;40514;52.758;6.360;2022-12-29T00:41:50;9.23;;;5.55;;
54613;SDS011;40514;52.758;6.360;2022-12-29T00:44:34;7.75;;;5.57;;
54613;SDS011;40514;52.758;6.360;2022-12-29T00:46:59;8.30;;;5.37;;
54613;SDS011;40514;52.758;6.360;2022-12-29T00:49:29;7.30;;;5.22;;
54613;SDS011;40514;52.758;6.360;2022-12-29T00:51:56;9.07;;;5.25;;
54613;SDS011;40514;52.758;6.360;2022-12-29T00:54:29;6.65;;;4.88;;
54613;SDS011;40514;52.758;6.360;2022-12-29T00:56:56;6.80;;;5.30;;
54613;SDS011;40514;52.758;6.360;2022-12-29T00:59:22;8.60;;;5.00;;
54613;SDS011;40514;52.758;6.360;2022-12-29T01:01:49;6.60;;;5.05;;
54613;SDS011;40514;52.758;6.360;2022-12-29T01:04:16;8.52;;;4.97;;
54613;SDS011;40514;52.758;6.360;2022-12-29T01:06:41;7.57;;;4.93;;
54613;SDS011;40514;52.758;6.360;2022-12-29T01:09:07;7.00;;;4.57;;
54613;SDS011;40514;52.758;6.360;2022-12-29T01:11:52;7.65;;;4.72;;
54613;SDS011;40514;52.758;6.360;2022-12-29T01:14:18;9.53;;;4.90;;
54613;SDS011;40514;52.758;6.360;2022-12-29T01:19:11;5.88;;;4.22;;
54613;SDS011;40514;52.758;6.360;2022-12-29T01:21:37;6.50;;;4.05;;
54613;SDS011;40514;52.758;6.360;2022-12-29T01:24:03;5.60;;;4.00;;
54613;SDS011;40514;52.758;6.360;2022-12-29T01:26:29;7.30;;;4.32;;
54613;SDS011;40514;52.758;6.360;2022-12-29T01:28:55;6.40;;;4.20;;
54613;SDS011;40514;52.758;6.360;2022-12-29T01:31:20;6.03;;;3.80;;
54613;SDS011;40514;52.758;6.360;2022-12-29T01:33:46;6.53;;;3.70;;
54613;SDS011;40514;52.758;6.360;2022-12-29T01:36:13;5.73;;;3.43;;
54613;SDS011;40514;52.758;6.360;2022-12-29T01:38:39;5.97;;;3.75;;
54613;SDS011;40514;52.758;6.360;2022-12-29T01:41:06;6.13;;;3.67;;
54613;SDS011;40514;52.758;6.360;2022-12-29T01:46:18;6.97;;;4.15;;
54613;SDS011;40514;52.758;6.360;2022-12-29T01:49:18;7.10;;;4.03;;
54613;SDS011;40514;52.758;6.360;2022-12-29T01:54:20;6.70;;;4.07;;
54613;SDS011;40514;52.758;6.360;2022-12-29T01:56:52;5.97;;;4.00;;
54613;SDS011;40514;52.758;6.360;2022-12-29T01:59:21;5.60;;;3.60;;
54613;SDS011;40514;52.758;6.360;2022-12-29T02:01:51;5.20;;;3.65;;
54613;SDS011;40514;52.758;6.360;2022-12-29T02:04:16;5.33;;;3.50;;
54613;SDS011;40514;52.758;6.360;2022-12-29T02:06:45;5.25;;;3.17;;
54613;SDS011;40514;52.758;6.360;2022-12-29T02:09:31;5.97;;;3.35;;
54613;SDS011;40514;52.758;6.360;2022-12-29T02:11:57;4.80;;;3.10;;
54613;SDS011;40514;52.758;6.360;2022-12-29T02:14:24;5.38;;;3.40;;
54613;SDS011;40514;52.758;6.360;2022-12-29T02:17:03;5.30;;;3.50;;
54613;SDS011;40514;52.758;6.360;2022-12-29T02:20:24;4.68;;;3.25;;
54613;SDS011;40514;52.758;6.360;2022-12-29T02:25:46;6.00;;;3.13;;
54613;SDS011;40514;52.758;6.360;2022-12-29T02:28:26;5.32;;;3.10;;
54613;SDS011;40514;52.758;6.360;2022-12-29T02:31:17;7.28;;;3.25;;
54613;SDS011;40514;52.758;6.360;2022-12-29T02:37:13;5.72;;;3.25;;
54613;SDS011;40514;52.758;6.360;2022-12-29T02:45:36;5.00;;;2.70;;
54613;SDS011;40514;52.758;6.360;2022-12-29T02:48:32;5.88;;;2.70;;
54613;SDS011;40514;52.758;6.360;2022-12-29T02:51:15;4.35;;;2.83;;
54613;SDS011;40514;52.758;6.360;2022-12-29T02:53:46;4.57;;;2.60;;
54613;SDS011;40514;52.758;6.360;2022-12-29T02:56:30;4.68;;;2.60;;
54613;SDS011;40514;52.758;6.360;2022-12-29T02:58:56;4.32;;;2.33;;
54613;SDS011;40514;52.758;6.360;2022-12-29T03:04:32;5.32;;;2.22;;
54613;SDS011;40514;52.758;6.360;2022-12-29T03:09:53;3.80;;;1.90;;
54613;SDS011;40514;52.758;6.360;2022-12-29T03:12:44;3.10;;;1.77;;
54613;SDS011;40514;52.758;6.360;2022-12-29T03:15:34;3.78;;;2.00;;
54613;SDS011;40514;52.758;6.360;2022-12-29T03:18:34;3.22;;;1.80;;
54613;SDS011;40514;52.758;6.360;2022-12-29T03:21:17;3.03;;;1.80;;
54613;SDS011;40514;52.758;6.360;2022-12-29T03:23:46;3.15;;;1.88;;
54613;SDS011;40514;52.758;6.360;2022-12-29T03:26:15;3.65;;;2.00;;
54613;SDS011;40514;52.758;6.360;2022-12-29T03:29:01;6.63;;;2.20;;
54613;SDS011;40514;52.758;6.360;2022-12-29T03:31:29;3.58;;;2.15;;
54613;SDS011;40514;52.758;6.360;2022-12-29T03:33:55;4.13;;;2.00;;
54613;SDS011;40514;52.758;6.360;2022-12-29T03:36:29;4.03;;;2.10;;
54613;SDS011;40514;52.758;6.360;2022-12-29T03:39:07;3.78;;;1.90;;
54613;SDS011;40514;52.758;6.360;2022-12-29T03:41:37;4.40;;;2.05;;
54613;SDS011;40514;52.758;6.360;2022-12-29T03:44:09;4.35;;;2.10;;
54613;SDS011;40514;52.758;6.360;2022-12-29T03:46:35;5.38;;;2.20;;
54613;SDS011;40514;52.758;6.360;2022-12-29T03:49:01;5.73;;;2.33;;
54613;SDS011;40514;52.758;6.360;2022-12-29T03:51:26;4.57;;;2.20;;
54613;SDS011;40514;52.758;6.360;2022-12-29T03:53:52;5.90;;;2.00;;
54613;SDS011;40514;52.758;6.360;2022-12-29T03:56:17;7.03;;;2.60;;
54613;SDS011;40514;52.758;6.360;2022-12-29T03:58:43;6.13;;;2.40;;
54613;SDS011;40514;52.758;6.360;2022-12-29T04:01:08;4.10;;;1.97;;
54613;SDS011;40514;52.758;6.360;2022-12-29T04:03:34;4.60;;;2.27;;
54613;SDS011;40514;52.758;6.360;2022-12-29T04:06:00;5.57;;;2.10;;
54613;SDS011;40514;52.758;6.360;2022-12-29T04:08:25;5.93;;;2.27;;
54613;SDS011;40514;52.758;6.360;2022-12-29T04:10:51;6.90;;;2.47;;
54613;SDS011;40514;52.758;6.360;2022-12-29T04:13:16;6.30;;;2.00;;
54613;SDS011;40514;52.758;6.360;2022-12-29T04:15:43;4.80;;;2.07;;
54613;SDS011;40514;52.758;6.360;2022-12-29T04:18:10;5.35;;;2.40;;
54613;SDS011;40514;52.758;6.360;2022-12-29T04:20:35;5.80;;;2.70;;
54613;SDS011;40514;52.758;6.360;2022-12-29T04:23:20;6.43;;;2.38;;
54613;SDS011;40514;52.758;6.360;2022-12-29T04:25:45;6.33;;;2.30;;
54613;SDS011;40514;52.758;6.360;2022-12-29T04:28:15;5.50;;;2.10;;
54613;SDS011;40514;52.758;6.360;2022-12-29T04:30:42;6.97;;;2.03;;
54613;SDS011;40514;52.758;6.360;2022-12-29T04:33:08;6.60;;;1.92;;
54613;SDS011;40514;52.758;6.360;2022-12-29T04:35:33;6.43;;;2.20;;
54613;SDS011;40514;52.758;6.360;2022-12-29T04:37:59;8.67;;;2.20;;
54613;SDS011;40514;52.758;6.360;2022-12-29T04:40:25;8.50;;;2.07;;
54613;SDS011;40514;52.758;6.360;2022-12-29T04:42:50;6.33;;;2.20;;
54613;SDS011;40514;52.758;6.360;2022-12-29T04:45:16;6.57;;;2.00;;
54613;SDS011;40514;52.758;6.360;2022-12-29T04:47:42;6.40;;;2.10;;
54613;SDS011;40514;52.758;6.360;2022-12-29T04:50:07;9.10;;;1.70;;
54613;SDS011;40514;52.758;6.360;2022-12-29T04:52:33;6.80;;;1.80;;
54613;SDS011;40514;52.758;6.360;2022-12-29T04:54:59;5.20;;;1.80;;
54613;SDS011;40514;52.758;6.360;2022-12-29T04:57:25;8.30;;;1.97;;
54613;SDS011;40514;52.758;6.360;2022-12-29T04:59:51;9.17;;;1.90;;
54613;SDS011;40514;52.758;6.360;2022-12-29T05:02:16;4.33;;;1.50;;
54613;SDS011;40514;52.758;6.360;2022-12-29T05:04:42;3.90;;;1.60;;
54613;SDS011;40514;52.758;6.360;2022-12-29T05:07:08;7.00;;;1.53;;
54613;SDS011;40514;52.758;6.360;2022-12-29T05:09:33;5.97;;;1.90;;
54613;SDS011;40514;52.758;6.360;2022-12-29T05:11:59;5.77;;;1.70;;
54613;SDS011;40514;52.758;6.360;2022-12-29T05:14:24;3.17;;;1.20;;
54613;SDS011;40514;52.758;6.360;2022-12-29T05:16:50;8.27;;;1.73;;
54613;SDS011;40514;52.758;6.360;2022-12-29T05:19:15;4.60;;;1.70;;
54613;SDS011;40514;52.758;6.360;2022-12-29T05:21:41;4.57;;;1.50;;
54613;SDS011;40514;52.758;6.360;2022-12-29T05:24:07;4.33;;;1.70;;
54613;SDS011;40514;52.758;6.360;2022-12-29T05:26:33;5.07;;;1.63;;
54613;SDS011;40514;52.758;6.360;2022-12-29T05:28:58;3.50;;;1.50;;
54613;SDS011;40514;52.758;6.360;2022-12-29T05:31:25;6.25;;;1.98;;
54613;SDS011;40514;52.758;6.360;2022-12-29T05:33:51;6.03;;;1.80;;
54613;SDS011;40514;52.758;6.360;2022-12-29T05:36:16;7.97;;;1.53;;
54613;SDS011;40514;52.758;6.360;2022-12-29T05:38:42;5.70;;;1.80;;
54613;SDS011;40514;52.758;6.360;2022-12-29T05:41:08;7.17;;;2.10;;
54613;SDS011;40514;52.758;6.360;2022-12-29T05:43:33;3.80;;;1.57;;
54613;SDS011;40514;52.758;6.360;2022-12-29T05:45:59;7.83;;;1.80;;
54613;SDS011;40514;52.758;6.360;2022-12-29T05:48:24;4.10;;;1.73;;
54613;SDS011;40514;52.758;6.360;2022-12-29T05:50:50;4.57;;;1.47;;
54613;SDS011;40514;52.758;6.360;2022-12-29T05:53:16;4.45;;;2.00;;
54613;SDS011;40514;52.758;6.360;2022-12-29T05:55:43;4.63;;;1.70;;
54613;SDS011;40514;52.758;6.360;2022-12-29T05:58:09;5.35;;;1.70;;
54613;SDS011;40514;52.758;6.360;2022-12-29T06:00:35;6.97;;;1.70;;
54613;SDS011;40514;52.758;6.360;2022-12-29T06:03:00;7.70;;;1.87;;
54613;SDS011;40514;52.758;6.360;2022-12-29T06:05:26;7.07;;;1.97;;
54613;SDS011;40514;52.758;6.360;2022-12-29T06:07:51;4.90;;;1.77;;
54613;SDS011;40514;52.758;6.360;2022-12-29T06:10:17;6.10;;;1.80;;
54613;SDS011;40514;52.758;6.360;2022-12-29T06:12:43;7.83;;;2.07;;
54613;SDS011;40514;52.758;6.360;2022-12-29T06:15:08;5.23;;;1.70;;
54613;SDS011;40514;52.758;6.360;2022-12-29T06:17:34;11.55;;;1.92;;
54613;SDS011;40514;52.758;6.360;2022-12-29T06:20:01;6.80;;;1.50;;
54613;SDS011;40514;52.758;6.360;2022-12-29T06:22:27;7.65;;;1.55;;
54613;SDS011;40514;52.758;6.360;2022-12-29T06:24:52;12.93;;;1.90;;
54613;SDS011;40514;52.758;6.360;2022-12-29T06:27:18;10.03;;;2.07;;
54613;SDS011;40514;52.758;6.360;2022-12-29T06:29:43;11.80;;;1.83;;
54613;SDS011;40514;52.758;6.360;2022-12-29T06:32:09;5.60;;;1.90;;
54613;SDS011;40514;52.758;6.360;2022-12-29T06:34:34;6.13;;;1.73;;
54613;SDS011;40514;52.758;6.360;2022-12-29T06:37:00;5.33;;;1.57;;
54613;SDS011;40514;52.758;6.360;2022-12-29T06:39:26;5.72;;;2.20;;
54613;SDS011;40514;52.758;6.360;2022-12-29T06:41:52;7.40;;;1.95;;
54613;SDS011;40514;52.758;6.360;2022-12-29T06:44:19;9.63;;;1.90;;
54613;SDS011;40514;52.758;6.360;2022-12-29T06:46:45;7.45;;;1.63;;
54613;SDS011;40514;52.758;6.360;2022-12-29T06:49:10;5.40;;;2.37;;
54613;SDS011;40514;52.758;6.360;2022-12-29T06:51:36;8.43;;;1.60;;
54613;SDS011;40514;52.758;6.360;2022-12-29T06:54:01;7.10;;;1.57;;
54613;SDS011;40514;52.758;6.360;2022-12-29T06:56:27;8.63;;;2.03;;
54613;SDS011;40514;52.758;6.360;2022-12-29T06:58:53;8.80;;;1.50;;
54613;SDS011;40514;52.758;6.360;2022-12-29T07:01:18;4.87;;;1.80;;
54613;SDS011;40514;52.758;6.360;2022-12-29T07:03:44;8.90;;;1.73;;
54613;SDS011;40514;52.758;6.360;2022-12-29T07:06:09;10.67;;;2.10;;
54613;SDS011;40514;52.758;6.360;2022-12-29T07:08:35;7.33;;;1.60;;
54613;SDS011;40514;52.758;6.360;2022-12-29T07:11:00;7.17;;;1.90;;
54613;SDS011;40514;52.758;6.360;2022-12-29T07:13:26;10.10;;;2.27;;
54613;SDS011;40514;52.758;6.360;2022-12-29T07:15:51;6.60;;;1.73;;
54613;SDS011;40514;52.758;6.360;2022-12-29T07:18:17;9.77;;;2.00;;
54613;SDS011;40514;52.758;6.360;2022-12-29T07:20:42;9.17;;;1.93;;
54613;SDS011;40514;52.758;6.360;2022-12-29T07:23:08;10.30;;;2.15;;
54613;SDS011;40514;52.758;6.360;2022-12-29T07:25:34;9.60;;;2.00;;
54613;SDS011;40514;52.758;6.360;2022-12-29T07:28:01;8.35;;;1.70;;
54613;SDS011;40514;52.758;6.360;2022-12-29T07:30:27;7.95;;;1.60;;
54613;SDS011;40514;52.758;6.360;2022-12-29T07:32:53;5.80;;;1.60;;
54613;SDS011;40514;52.758;6.360;2022-12-29T07:35:18;8.50;;;1.73;;
54613;SDS011;40514;52.758;6.360;2022-12-29T07:37:44;8.67;;;1.80;;
54613;SDS011;40514;52.758;6.360;2022-12-29T07:40:10;7.53;;;2.20;;
54613;SDS011;40514;52.758;6.360;2022-12-29T07:42:35;6.45;;;1.73;;
54613;SDS011;40514;52.758;6.360;2022-12-29T07:45:01;6.33;;;1.50;;
54613;SDS011;40514;52.758;6.360;2022-12-29T07:47:27;7.72;;;2.00;;
54613;SDS011;40514;52.758;6.360;2022-12-29T07:49:52;5.70;;;1.87;;
54613;SDS011;40514;52.758;6.360;2022-12-29T07:52:18;9.30;;;1.97;;
54613;SDS011;40514;52.758;6.360;2022-12-29T07:54:44;7.13;;;1.60;;
54613;SDS011;40514;52.758;6.360;2022-12-29T07:57:09;7.27;;;1.97;;
54613;SDS011;40514;52.758;6.360;2022-12-29T07:59:35;12.10;;;1.83;;
54613;SDS011;40514;52.758;6.360;2022-12-29T08:02:00;9.80;;;2.10;;
54613;SDS011;40514;52.758;6.360;2022-12-29T08:04:26;11.10;;;2.57;;
54613;SDS011;40514;52.758;6.360;2022-12-29T08:06:51;9.17;;;2.50;;
54613;SDS011;40514;52.758;6.360;2022-12-29T08:09:17;9.03;;;2.20;;
54613;SDS011;40514;52.758;6.360;2022-12-29T08:11:42;10.40;;;2.40;;
54613;SDS011;40514;52.758;6.360;2022-12-29T08:14:08;9.85;;;2.45;;
54613;SDS011;40514;52.758;6.360;2022-12-29T08:16:34;8.67;;;2.10;;
54613;SDS011;40514;52.758;6.360;2022-12-29T08:19:00;9.02;;;2.33;;
54613;SDS011;40514;52.758;6.360;2022-12-29T08:21:29;10.45;;;2.38;;
54613;SDS011;40514;52.758;6.360;2022-12-29T08:23:55;15.98;;;2.65;;
54613;SDS011;40514;52.758;6.360;2022-12-29T08:26:20;7.87;;;1.77;;
54613;SDS011;40514;52.758;6.360;2022-12-29T08:28:46;11.53;;;2.80;;
54613;SDS011;40514;52.758;6.360;2022-12-29T08:31:12;10.80;;;2.10;;
54613;SDS011;40514;52.758;6.360;2022-12-29T08:33:37;7.37;;;2.30;;
54613;SDS011;40514;52.758;6.360;2022-12-29T08:36:04;11.93;;;2.40;;
54613;SDS011;40514;52.758;6.360;2022-12-29T08:38:31;12.02;;;2.70;;
54613;SDS011;40514;52.758;6.360;2022-12-29T08:40:57;9.35;;;2.17;;
54613;SDS011;40514;52.758;6.360;2022-12-29T08:43:23;12.63;;;2.23;;
54613;SDS011;40514;52.758;6.360;2022-12-29T08:45:50;8.95;;;1.95;;
54613;SDS011;40514;52.758;6.360;2022-12-29T08:48:16;13.32;;;2.25;;
54613;SDS011;40514;52.758;6.360;2022-12-29T08:50:44;7.65;;;1.63;;
54613;SDS011;40514;52.758;6.360;2022-12-29T08:53:10;8.50;;;1.70;;
54613;SDS011;40514;52.758;6.360;2022-12-29T08:55:36;11.70;;;2.30;;
54613;SDS011;40514;52.758;6.360;2022-12-29T08:58:01;10.27;;;2.03;;
54613;SDS011;40514;52.758;6.360;2022-12-29T09:00:27;8.77;;;2.40;;
54613;SDS011;40514;52.758;6.360;2022-12-29T09:02:52;8.03;;;1.93;;
54613;SDS011;40514;52.758;6.360;2022-12-29T09:05:18;8.40;;;2.13;;
54613;SDS011;40514;52.758;6.360;2022-12-29T09:07:43;12.03;;;2.53;;
54613;SDS011;40514;52.758;6.360;2022-12-29T09:10:09;10.67;;;2.50;;
54613;SDS011;40514;52.758;6.360;2022-12-29T09:12:35;11.03;;;1.90;;
54613;SDS011;40514;52.758;6.360;2022-12-29T09:15:00;7.70;;;1.90;;
54613;SDS011;40514;52.758;6.360;2022-12-29T09:17:26;10.63;;;2.47;;
54613;SDS011;40514;52.758;6.360;2022-12-29T09:20:15;10.38;;;2.50;;
54613;SDS011;40514;52.758;6.360;2022-12-29T09:22:42;8.57;;;2.47;;
54613;SDS011;40514;52.758;6.360;2022-12-29T09:25:09;10.32;;;2.17;;
54613;SDS011;40514;52.758;6.360;2022-12-29T09:27:35;9.35;;;2.22;;
54613;SDS011;40514;52.758;6.360;2022-12-29T09:30:02;13.57;;;2.60;;
54613;SDS011;40514;52.758;6.360;2022-12-29T09:32:30;9.50;;;2.35;;
54613;SDS011;40514;52.758;6.360;2022-12-29T09:34:56;9.40;;;1.90;;
54613;SDS011;40514;52.758;6.360;2022-12-29T09:37:22;12.90;;;2.13;;
54613;SDS011;40514;52.758;6.360;2022-12-29T09:39:47;12.27;;;2.77;;
54613;SDS011;40514;52.758;6.360;2022-12-29T09:42:20;11.33;;;2.47;;
54613;SDS011;40514;52.758;6.360;2022-12-29T09:47:44;8.90;;;1.90;;
54613;SDS011;40514;52.758;6.360;2022-12-29T09:50:20;10.05;;;2.40;;
54613;SDS011;40514;52.758;6.360;2022-12-29T09:52:53;8.90;;;2.50;;
54613;SDS011;40514;52.758;6.360;2022-12-29T09:55:22;11.13;;;2.17;;
54613;SDS011;40514;52.758;6.360;2022-12-29T09:57:56;6.97;;;2.05;;
54613;SDS011;40514;52.758;6.360;2022-12-29T10:00:37;11.25;;;2.33;;
54613;SDS011;40514;52.758;6.360;2022-12-29T10:03:16;8.88;;;2.25;;
54613;SDS011;40514;52.758;6.360;2022-12-29T10:05:48;10.02;;;2.33;;
54613;SDS011;40514;52.758;6.360;2022-12-29T10:08:30;9.05;;;2.15;;
54613;SDS011;40514;52.758;6.360;2022-12-29T10:10:59;7.22;;;1.90;;
54613;SDS011;40514;52.758;6.360;2022-12-29T10:20:00;11.88;;;2.58;;
54613;SDS011;40514;52.758;6.360;2022-12-29T10:22:59;6.75;;;1.70;;
54613;SDS011;40514;52.758;6.360;2022-12-29T10:25:42;6.43;;;2.20;;
54613;SDS011;40514;52.758;6.360;2022-12-29T10:28:19;10.98;;;2.17;;
54613;SDS011;40514;52.758;6.360;2022-12-29T10:33:15;10.63;;;2.20;;
54613;SDS011;40514;52.758;6.360;2022-12-29T10:35:48;8.70;;;2.47;;
54613;SDS011;40514;52.758;6.360;2022-12-29T10:40:54;11.13;;;2.97;;
54613;SDS011;40514;52.758;6.360;2022-12-29T10:43:33;7.75;;;2.25;;
54613;SDS011;40514;52.758;6.360;2022-12-29T10:46:08;8.75;;;2.67;;
54613;SDS011;40514;52.758;6.360;2022-12-29T10:48:37;7.43;;;1.95;;
54613;SDS011;40514;52.758;6.360;2022-12-29T10:51:07;9.63;;;2.20;;
54613;SDS011;40514;52.758;6.360;2022-12-29T10:53:38;7.38;;;2.00;;
54613;SDS011;40514;52.758;6.360;2022-12-29T10:56:17;5.95;;;1.95;;
54613;SDS011;40514;52.758;6.360;2022-12-29T10:58:54;6.15;;;1.80;;
54613;SDS011;40514;52.758;6.360;2022-12-29T11:01:21;6.72;;;2.05;;
54613;SDS011;40514;52.758;6.360;2022-12-29T11:03:54;6.93;;;2.00;;
54613;SDS011;40514;52.758;6.360;2022-12-29T11:06:28;7.53;;;2.17;;
54613;SDS011;40514;52.758;6.360;2022-12-29T11:08:57;8.82;;;2.50;;
54613;SDS011;40514;52.758;6.360;2022-12-29T11:11:35;9.43;;;2.47;;
54613;SDS011;40514;52.758;6.360;2022-12-29T11:14:03;9.43;;;2.83;;
54613;SDS011;40514;52.758;6.360;2022-12-29T11:16:38;8.68;;;2.35;;
54613;SDS011;40514;52.758;6.360;2022-12-29T11:19:10;6.93;;;2.20;;
54613;SDS011;40514;52.758;6.360;2022-12-29T11:21:48;10.88;;;2.20;;
54613;SDS011;40514;52.758;6.360;2022-12-29T11:24:19;9.10;;;2.63;;
54613;SDS011;40514;52.758;6.360;2022-12-29T11:26:46;8.95;;;2.50;;
54613;SDS011;40514;52.758;6.360;2022-12-29T11:29:22;8.48;;;2.45;;
54613;SDS011;40514;52.758;6.360;2022-12-29T11:31:57;13.80;;;2.95;;
54613;SDS011;40514;52.758;6.360;2022-12-29T11:34:25;10.13;;;2.70;;
54613;SDS011;40514;52.758;6.360;2022-12-29T11:37:03;11.10;;;2.97;;
54613;SDS011;40514;52.758;6.360;2022-12-29T11:40:00;15.63;;;3.42;;
54613;SDS011;40514;52.758;6.360;2022-12-29T11:42:37;10.93;;;2.92;;
54613;SDS011;40514;52.758;6.360;2022-12-29T11:45:06;12.48;;;3.03;;
54613;SDS011;40514;52.758;6.360;2022-12-29T11:47:41;7.55;;;2.85;;
54613;SDS011;40514;52.758;6.360;2022-12-29T11:50:15;11.02;;;2.75;;
54613;SDS011;40514;52.758;6.360;2022-12-29T11:52:45;12.57;;;3.00;;
54613;SDS011;40514;52.758;6.360;2022-12-29T11:55:18;11.68;;;2.70;;
54613;SDS011;40514;52.758;6.360;2022-12-29T11:57:50;11.02;;;2.95;;
54613;SDS011;40514;52.758;6.360;2022-12-29T12:00:21;13.05;;;3.10;;
54613;SDS011;40514;52.758;6.360;2022-12-29T12:05:38;14.25;;;2.85;;
54613;SDS011;40514;52.758;6.360;2022-12-29T12:08:36;11.07;;;3.40;;
54613;SDS011;40514;52.758;6.360;2022-12-29T12:11:09;13.90;;;3.10;;
54613;SDS011;40514;52.758;6.360;2022-12-29T12:16:28;13.48;;;3.50;;
54613;SDS011;40514;52.758;6.360;2022-12-29T12:19:01;12.40;;;2.92;;
54613;SDS011;40514;52.758;6.360;2022-12-29T12:21:39;15.02;;;3.88;;
54613;SDS011;40514;52.758;6.360;2022-12-29T12:24:22;12.43;;;3.05;;
54613;SDS011;40514;52.758;6.360;2022-12-29T12:29:46;11.75;;;3.03;;
54613;SDS011;40514;52.758;6.360;2022-12-29T12:34:59;18.17;;;3.20;;
54613;SDS011;40514;52.758;6.360;2022-12-29T12:40:19;17.85;;;3.70;;
54613;SDS011;40514;52.758;6.360;2022-12-29T12:48:22;15.10;;;3.28;;
54613;SDS011;40514;52.758;6.360;2022-12-29T12:54:01;13.52;;;3.28;;
54613;SDS011;40514;52.758;6.360;2022-12-29T12:56:51;16.05;;;2.72;;
54613;SDS011;40514;52.758;6.360;2022-12-29T13:05:24;11.33;;;2.40;;
54613;SDS011;40514;52.758;6.360;2022-12-29T13:30:23;10.65;;;2.33;;
54613;SDS011;40514;52.758;6.360;2022-12-29T13:33:19;10.13;;;2.58;;
54613;SDS011;40514;52.758;6.360;2022-12-29T13:36:10;10.18;;;2.53;;
54613;SDS011;40514;52.758;6.360;2022-12-29T13:39:07;14.02;;;2.53;;
54613;SDS011;40514;52.758;6.360;2022-12-29T13:41:39;12.48;;;2.67;;
54613;SDS011;40514;52.758;6.360;2022-12-29T13:44:18;12.38;;;2.60;;
54613;SDS011;40514;52.758;6.360;2022-12-29T13:46:48;13.60;;;2.90;;
54613;SDS011;40514;52.758;6.360;2022-12-29T13:49:18;18.33;;;3.55;;
54613;SDS011;40514;52.758;6.360;2022-12-29T13:51:49;11.07;;;2.55;;
54613;SDS011;40514;52.758;6.360;2022-12-29T13:54:35;12.30;;;2.83;;
54613;SDS011;40514;52.758;6.360;2022-12-29T13:59:54;10.60;;;2.50;;
54613;SDS011;40514;52.758;6.360;2022-12-29T14:02:46;13.07;;;3.05;;
54613;SDS011;40514;52.758;6.360;2022-12-29T14:05:42;8.00;;;1.75;;
54613;SDS011;40514;52.758;6.360;2022-12-29T14:08:15;11.32;;;2.65;;
54613;SDS011;40514;52.758;6.360;2022-12-29T14:10:49;9.38;;;2.40;;
54613;SDS011;40514;52.758;6.360;2022-12-29T14:13:20;12.77;;;2.45;;
54613;SDS011;40514;52.758;6.360;2022-12-29T14:15:52;9.93;;;2.20;;
54613;SDS011;40514;52.758;6.360;2022-12-29T14:18:27;14.25;;;2.60;;
54613;SDS011;40514;52.758;6.360;2022-12-29T14:28:37;9.23;;;2.57;;
54613;SDS011;40514;52.758;6.360;2022-12-29T14:31:48;10.82;;;2.20;;
54613;SDS011;40514;52.758;6.360;2022-12-29T14:39:02;8.98;;;2.15;;
54613;SDS011;40514;52.758;6.360;2022-12-29T14:41:34;13.68;;;2.30;;
54613;SDS011;40514;52.758;6.360;2022-12-29T14:44:16;10.25;;;2.13;;
54613;SDS011;40514;52.758;6.360;2022-12-29T14:49:25;11.60;;;2.33;;
54613;SDS011;40514;52.758;6.360;2022-12-29T14:51:55;10.68;;;2.17;;
54613;SDS011;40514;52.758;6.360;2022-12-29T14:57:00;11.10;;;2.20;;
54613;SDS011;40514;52.758;6.360;2022-12-29T14:59:29;8.40;;;2.70;;
54613;SDS011;40514;52.758;6.360;2022-12-29T15:01:57;11.82;;;2.40;;
54613;SDS011;40514;52.758;6.360;2022-12-29T15:04:25;8.93;;;2.40;;
54613;SDS011;40514;52.758;6.360;2022-12-29T15:06:55;11.77;;;2.90;;
54613;SDS011;40514;52.758;6.360;2022-12-29T15:14:48;12.93;;;2.50;;
54613;SDS011;40514;52.758;6.360;2022-12-29T15:17:29;11.07;;;2.35;;
54613;SDS011;40514;52.758;6.360;2022-12-29T15:20:00;10.30;;;2.35;;
54613;SDS011;40514;52.758;6.360;2022-12-29T15:22:41;8.90;;;2.13;;
54613;SDS011;40514;52.758;6.360;2022-12-29T15:25:12;13.43;;;2.67;;
54613;SDS011;40514;52.758;6.360;2022-12-29T15:27:41;10.40;;;2.67;;
54613;SDS011;40514;52.758;6.360;2022-12-29T15:30:12;7.93;;;2.07;;
54613;SDS011;40514;52.758;6.360;2022-12-29T15:32:39;9.85;;;3.00;;
54613;SDS011;40514;52.758;6.360;2022-12-29T15:35:22;17.50;;;3.00;;
54613;SDS011;40514;52.758;6.360;2022-12-29T15:37:54;10.55;;;2.13;;
54613;SDS011;40514;52.758;6.360;2022-12-29T15:45:46;12.57;;;3.00;;
54613;SDS011;40514;52.758;6.360;2022-12-29T15:50:43;11.57;;;2.40;;
54613;SDS011;40514;52.758;6.360;2022-12-29T15:53:15;12.40;;;2.78;;
54613;SDS011;40514;52.758;6.360;2022-12-29T15:55:49;11.25;;;2.75;;
54613;SDS011;40514;52.758;6.360;2022-12-29T15:58:18;11.25;;;3.03;;
54613;SDS011;40514;52.758;6.360;2022-12-29T16:00:46;11.63;;;2.92;;
54613;SDS011;40514;52.758;6.360;2022-12-29T16:03:23;12.30;;;3.17;;
54613;SDS011;40514;52.758;6.360;2022-12-29T16:05:52;6.15;;;2.40;;
54613;SDS011;40514;52.758;6.360;2022-12-29T16:08:33;9.25;;;2.67;;
54613;SDS011;40514;52.758;6.360;2022-12-29T16:11:18;10.20;;;2.88;;
54613;SDS011;40514;52.758;6.360;2022-12-29T16:13:57;10.52;;;2.85;;
54613;SDS011;40514;52.758;6.360;2022-12-29T16:16:26;8.57;;;2.90;;
54613;SDS011;40514;52.758;6.360;2022-12-29T16:18:55;7.82;;;2.40;;
54613;SDS011;40514;52.758;6.360;2022-12-29T16:21:26;8.65;;;2.95;;
54613;SDS011;40514;52.758;6.360;2022-12-29T16:24:00;9.18;;;2.80;;
54613;SDS011;40514;52.758;6.360;2022-12-29T16:26:34;6.30;;;2.20;;
54613;SDS011;40514;52.758;6.360;2022-12-29T16:29:00;6.90;;;2.20;;
54613;SDS011;40514;52.758;6.360;2022-12-29T16:34:24;5.53;;;2.22;;
54613;SDS011;40514;52.758;6.360;2022-12-29T16:39:52;7.45;;;2.40;;
54613;SDS011;40514;52.758;6.360;2022-12-29T16:42:34;7.33;;;2.10;;
54613;SDS011;40514;52.758;6.360;2022-12-29T16:48:18;11.43;;;2.65;;
54613;SDS011;40514;52.758;6.360;2022-12-29T16:53:35;12.73;;;2.70;;
54613;SDS011;40514;52.758;6.360;2022-12-29T16:56:08;7.82;;;2.50;;
54613;SDS011;40514;52.758;6.360;2022-12-29T16:58:46;6.25;;;2.50;;
54613;SDS011;40514;52.758;6.360;2022-12-29T17:01:13;8.38;;;2.90;;
54613;SDS011;40514;52.758;6.360;2022-12-29T17:03:45;10.27;;;3.03;;
54613;SDS011;40514;52.758;6.360;2022-12-29T17:06:17;9.77;;;3.15;;
54613;SDS011;40514;52.758;6.360;2022-12-29T17:08:45;9.85;;;3.17;;
54613;SDS011;40514;52.758;6.360;2022-12-29T17:11:18;8.70;;;3.17;;
54613;SDS011;40514;52.758;6.360;2022-12-29T17:14:27;10.60;;;3.90;;
54613;SDS011;40514;52.758;6.360;2022-12-29T17:19:47;12.20;;;4.25;;
54613;SDS011;40514;52.758;6.360;2022-12-29T17:22:16;9.40;;;3.80;;
54613;SDS011;40514;52.758;6.360;2022-12-29T17:24:49;8.35;;;3.38;;
54613;SDS011;40514;52.758;6.360;2022-12-29T17:29:54;11.80;;;3.92;;